Terminal Aerodrome Forecast
Issued by NWS Knoxville/Tri Cities, TN

Current Version | Previous Version | Text Only | Print | Product List | Glossary On
Versions: 1 2 3 4 5 6 7 8 9 10 11 12 13 14 15 16 17 18 19 20 21 22 23 24 25 26 27 28 29 30 31 32 33 34 35 36 37 38 39 40 41
000
FTUS44 KMRX 300919 AAB
TAFTRI
TAF AMD
KTRI 300919Z 3009/3106 00000KT 6SM BR SCT150
      TEMPO 3009/3013 3SM BR SCT002
     FM301300 00000KT 3SM BR SCT004
     FM301400 VRB04KT P6SM SCT040
     FM302000 20007KT P6SM SCT045 BKN100
     FM310100 00000KT P6SM FEW050 BKN250=

USA.gov is the U.S. government's official web portal to all federal, state and local government web resources and services.